createdAt,value
2023-04-02T00:01:28.595Z,7.61
2023-04-02T00:03:59.632Z,7.57
2023-04-02T00:06:30.204Z,7.54
2023-04-02T00:09:04.609Z,7.50
2023-04-02T00:11:35.246Z,7.48
2023-04-02T00:14:04.306Z,7.49
2023-04-02T00:16:32.002Z,7.47
2023-04-02T00:19:04.217Z,7.45
2023-04-02T00:21:38.854Z,7.43
2023-04-02T00:24:19.470Z,7.44
2023-04-02T00:26:51.879Z,7.40
2023-04-02T00:29:19.698Z,7.36
2023-04-02T00:31:52.588Z,7.35
2023-04-02T00:34:45.728Z,7.33
2023-04-02T00:37:24.019Z,7.31
2023-04-02T00:40:02.138Z,7.27
2023-04-02T00:42:31.215Z,7.33
2023-04-02T00:44:59.056Z,7.30
2023-04-02T00:47:31.850Z,7.17
2023-04-02T00:50:05.909Z,7.28
2023-04-02T00:52:35.011Z,7.21
2023-04-02T00:55:08.036Z,7.14
2023-04-02T00:57:35.096Z,7.11
2023-04-02T01:00:19.757Z,6.99
2023-04-02T01:03:19.102Z,7.01
2023-04-02T01:06:04.687Z,6.99
2023-04-02T01:09:04.896Z,6.93
2023-04-02T01:12:05.199Z,6.84
2023-04-02T01:14:42.129Z,6.80
2023-04-02T01:17:32.015Z,6.70
2023-04-02T01:20:26.646Z,6.62
2023-04-02T01:23:14.907Z,6.52
2023-04-02T01:25:48.593Z,6.39
2023-04-02T01:28:25.703Z,6.41
2023-04-02T01:30:55.965Z,6.44
2023-04-02T01:33:28.257Z,6.57
2023-04-02T01:36:10.617Z,6.61
2023-04-02T01:38:45.998Z,6.52
2023-04-02T01:41:30.901Z,6.43
2023-04-02T01:44:08.041Z,6.29
2023-04-02T01:46:38.394Z,6.32
2023-04-02T01:49:13.863Z,6.40
2023-04-02T01:51:45.545Z,6.40
2023-04-02T01:54:16.570Z,6.27
2023-04-02T01:56:44.418Z,6.06
2023-04-02T01:59:12.298Z,5.95
2023-04-02T02:01:49.156Z,5.85
2023-04-02T02:04:17.223Z,5.83
2023-04-02T02:06:45.705Z,5.84
2023-04-02T02:09:19.693Z,5.85
2023-04-02T02:11:46.923Z,5.81
2023-04-02T02:14:23.369Z,5.65
2023-04-02T02:16:53.487Z,5.64
2023-04-02T02:19:24.328Z,5.64
2023-04-02T02:22:16.854Z,5.72
2023-04-02T02:24:44.421Z,5.74
2023-04-02T02:27:23.222Z,5.66
2023-04-02T02:29:56.001Z,5.51
2023-04-02T02:32:28.992Z,5.50
2023-04-02T02:35:19.191Z,5.57
2023-04-02T02:37:52.754Z,5.63
2023-04-02T02:40:31.661Z,5.74
2023-04-02T02:43:02.990Z,5.84
2023-04-02T02:45:37.874Z,5.86
2023-04-02T02:48:10.904Z,5.82
2023-04-02T02:50:38.517Z,5.61
2023-04-02T02:53:21.286Z,5.54
2023-04-02T02:55:53.118Z,5.70
2023-04-02T02:58:32.746Z,5.76
2023-04-02T03:01:13.502Z,5.76
2023-04-02T03:03:44.872Z,5.75
2023-04-02T03:06:16.817Z,5.73
2023-04-02T03:09:01.886Z,5.80
2023-04-02T03:12:21.738Z,5.86
2023-04-02T03:15:11.593Z,5.82
2023-04-02T03:17:52.314Z,5.76
2023-04-02T03:20:22.262Z,5.74
2023-04-02T03:22:56.275Z,5.69
2023-04-02T03:25:38.745Z,5.60
2023-04-02T03:28:13.081Z,5.46
2023-04-02T03:31:03.196Z,5.38
2023-04-02T03:34:04.962Z,5.41
2023-04-02T03:36:43.758Z,5.48
2023-04-02T03:39:19.235Z,5.55
2023-04-02T03:41:58.651Z,5.58
2023-04-02T03:44:46.595Z,5.62
2023-04-02T03:47:19.651Z,5.56
2023-04-02T03:49:53.647Z,5.52
2023-04-02T03:52:26.521Z,5.54
2023-04-02T03:54:57.079Z,5.56
2023-04-02T03:57:27.186Z,5.56
2023-04-02T04:00:02.412Z,5.51
2023-04-02T04:02:41.270Z,5.41
2023-04-02T04:05:29.527Z,5.36
2023-04-02T04:08:21.231Z,5.47
2023-04-02T04:10:53.975Z,5.55
2023-04-02T04:13:40.635Z,5.57
2023-04-02T04:16:12.278Z,5.61
2023-04-02T04:19:03.672Z,5.65
2023-04-02T04:21:38.803Z,5.65
2023-04-02T04:24:22.954Z,5.64
2023-04-02T04:27:09.525Z,5.60
2023-04-02T04:30:04.221Z,5.48
2023-04-02T04:32:39.313Z,5.33
2023-04-02T04:35:35.171Z,5.16
2023-04-02T04:38:12.208Z,5.20
2023-04-02T04:40:54.124Z,5.21
2023-04-02T04:43:52.392Z,5.19
2023-04-02T04:47:08.767Z,5.28
2023-04-02T04:49:54.017Z,5.26
2023-04-02T04:52:29.370Z,5.33
2023-04-02T04:54:57.005Z,5.41
2023-04-02T04:57:34.544Z,5.49
2023-04-02T05:00:27.480Z,5.51
2023-04-02T05:03:06.113Z,5.59
2023-04-02T05:05:39.330Z,5.67
2023-04-02T05:08:21.055Z,5.69
2023-04-02T05:10:52.323Z,5.69
2023-04-02T05:13:36.114Z,5.67
2023-04-02T05:16:23.753Z,5.64
2023-04-02T05:19:02.399Z,5.62
2023-04-02T05:21:40.890Z,5.52
2023-04-02T05:24:44.395Z,5.56
2023-04-02T05:27:37.709Z,5.56
2023-04-02T05:30:32.364Z,5.58
2023-04-02T05:33:17.578Z,5.57
2023-04-02T05:35:51.221Z,5.59
2023-04-02T05:38:28.564Z,5.62
2023-04-02T05:41:05.893Z,5.62
2023-04-02T05:43:35.587Z,5.71
2023-04-02T05:46:16.983Z,5.77
2023-04-02T05:48:52.155Z,5.87
2023-04-02T05:51:31.656Z,5.84
2023-04-02T05:54:01.749Z,5.84
2023-04-02T05:56:35.035Z,5.87
2023-04-02T05:59:47.805Z,5.96
2023-04-02T06:02:36.558Z,6.07
2023-04-02T06:05:15.914Z,6.11
2023-04-02T06:07:57.146Z,6.16
2023-04-02T06:10:26.881Z,6.20
2023-04-02T06:13:05.341Z,6.20
2023-04-02T06:15:37.988Z,6.18
2023-04-02T06:18:36.872Z,6.18
2023-04-02T06:21:15.584Z,6.17
2023-04-02T06:23:46.783Z,6.22
2023-04-02T06:26:22.125Z,6.20
2023-04-02T06:29:28.783Z,6.29
2023-04-02T06:32:00.764Z,6.30
2023-04-02T06:34:31.015Z,6.37
2023-04-02T06:37:33.550Z,6.48
2023-04-02T06:40:33.501Z,6.63
2023-04-02T06:43:16.845Z,6.71
2023-04-02T06:46:28.934Z,6.75
2023-04-02T06:49:19.540Z,6.72
2023-04-02T06:51:51.890Z,6.87
2023-04-02T06:54:19.647Z,7.01
2023-04-02T06:56:53.819Z,7.14
2023-04-02T06:59:31.883Z,7.20
2023-04-02T07:02:15.452Z,7.30
2023-04-02T07:04:43.128Z,7.45
2023-04-02T07:07:10.041Z,7.51
2023-04-02T07:09:40.557Z,7.55
2023-04-02T07:12:12.989Z,7.61
2023-04-02T07:14:40.360Z,7.63
2023-04-02T07:17:07.742Z,7.68
2023-04-02T07:19:34.796Z,7.71
2023-04-02T07:22:02.063Z,7.73
2023-04-02T07:24:34.935Z,7.92
2023-04-02T07:27:01.959Z,8.06
2023-04-02T07:29:29.144Z,8.10
2023-04-02T07:31:56.431Z,8.21
2023-04-02T07:34:23.182Z,8.37
2023-04-02T07:36:49.979Z,8.40
2023-04-02T07:39:22.138Z,8.57
2023-04-02T07:41:59.745Z,8.67
2023-04-02T07:44:26.861Z,8.87
2023-04-02T07:46:54.485Z,8.96
2023-04-02T07:49:27.161Z,8.99
2023-04-02T07:51:53.855Z,9.29
2023-04-02T07:54:20.557Z,9.53
2023-04-02T07:56:47.745Z,9.63
2023-04-02T07:59:14.357Z,9.82
2023-04-02T08:01:43.055Z,9.71
2023-04-02T08:04:18.830Z,9.71
2023-04-02T08:06:46.100Z,9.86
2023-04-02T08:09:13.579Z,10.11
2023-04-02T08:11:42.193Z,10.19
2023-04-02T08:14:10.332Z,10.40
2023-04-02T08:17:03.446Z,10.37
2023-04-02T08:19:30.770Z,10.47
2023-04-02T08:21:57.459Z,10.55
2023-04-02T08:24:24.257Z,10.52
2023-04-02T08:26:54.537Z,10.77
2023-04-02T08:29:22.058Z,10.82
2023-04-02T08:31:48.855Z,10.58
2023-04-02T08:34:15.606Z,10.70
2023-04-02T08:36:45.493Z,10.85
2023-04-02T08:39:12.812Z,10.96
2023-04-02T08:41:47.302Z,11.22
2023-04-02T08:44:32.399Z,11.54
2023-04-02T08:46:59.344Z,11.81
2023-04-02T08:49:35.880Z,11.92
2023-04-02T08:52:02.605Z,12.03
2023-04-02T08:54:32.618Z,12.16
2023-04-02T08:57:21.597Z,12.16
2023-04-02T09:00:01.937Z,12.11
2023-04-02T09:02:40.719Z,12.25
2023-04-02T09:05:17.751Z,12.37
2023-04-02T09:07:47.244Z,12.47
2023-04-02T09:10:16.662Z,12.57
2023-04-02T09:12:48.463Z,12.56
2023-04-02T09:15:26.265Z,12.71
2023-04-02T09:18:03.957Z,12.78
2023-04-02T09:20:30.862Z,12.92
2023-04-02T09:22:58.281Z,13.00
2023-04-02T09:25:29.792Z,13.19
2023-04-02T09:28:00.774Z,13.28
2023-04-02T09:30:33.379Z,13.47
2023-04-02T09:33:07.781Z,13.58
2023-04-02T09:35:50.139Z,13.66
2023-04-02T09:38:23.373Z,13.88
2023-04-02T09:41:02.604Z,14.10
2023-04-02T09:43:35.855Z,14.35
2023-04-02T09:46:06.830Z,14.56
2023-04-02T09:48:44.402Z,14.72
2023-04-02T09:51:23.633Z,14.86
2023-04-02T09:54:07.743Z,14.97
2023-04-02T09:56:37.946Z,14.73
2023-04-02T09:59:07.414Z,14.73
2023-04-02T10:01:42.275Z,14.79
2023-04-02T10:04:37.025Z,15.02
2023-04-02T10:07:10.317Z,15.24
2023-04-02T10:09:39.511Z,15.50
2023-04-02T10:12:12.668Z,15.54
2023-04-02T10:14:48.701Z,15.56
2023-04-02T10:17:45.194Z,15.66
2023-04-02T10:20:21.269Z,15.90
2023-04-02T10:22:48.780Z,15.99
2023-04-02T10:25:17.590Z,16.15
2023-04-02T10:28:03.858Z,16.56
2023-04-02T10:30:42.965Z,16.78
2023-04-02T10:33:23.097Z,17.16
2023-04-02T10:36:04.342Z,17.45
2023-04-02T10:39:10.376Z,17.80
2023-04-02T10:42:13.153Z,17.97
2023-04-02T10:44:51.422Z,18.09
2023-04-02T10:47:38.784Z,18.30
2023-04-02T10:50:41.092Z,17.76
2023-04-02T10:53:08.373Z,17.83
2023-04-02T10:55:43.528Z,17.79
2023-04-02T10:58:29.499Z,18.37
2023-04-02T11:01:07.656Z,18.58
2023-04-02T11:04:00.761Z,18.46
2023-04-02T11:06:36.487Z,19.13
2023-04-02T11:09:08.886Z,19.48
2023-04-02T11:11:41.694Z,19.76
2023-04-02T11:14:21.553Z,19.17
2023-04-02T11:16:50.208Z,19.55
2023-04-02T11:19:16.947Z,19.89
2023-04-02T11:22:18.177Z,20.52
2023-04-02T11:24:53.302Z,20.23
2023-04-02T11:27:37.015Z,20.23
2023-04-02T11:30:15.997Z,20.74
2023-04-02T11:32:49.559Z,20.95
2023-04-02T11:35:31.792Z,20.77
2023-04-02T11:38:10.923Z,20.97
2023-04-02T11:40:41.017Z,19.99
2023-04-02T11:43:38.248Z,20.48
2023-04-02T11:46:26.234Z,20.49
2023-04-02T11:48:55.125Z,18.17
2023-04-02T11:51:41.943Z,17.38
2023-04-02T11:54:23.924Z,16.62
2023-04-02T11:57:20.253Z,16.75
2023-04-02T12:00:21.574Z,17.49
2023-04-02T12:03:13.541Z,17.48
2023-04-02T12:05:48.686Z,18.19
2023-04-02T12:08:24.050Z,17.00
2023-04-02T12:10:58.111Z,17.69
2023-04-02T12:13:40.059Z,16.98
2023-04-02T12:16:08.865Z,16.50
2023-04-02T12:18:36.345Z,16.53
2023-04-02T12:21:03.398Z,16.69
2023-04-02T12:23:31.493Z,16.83
2023-04-02T12:25:59.815Z,17.30
2023-04-02T12:28:33.872Z,16.99
2023-04-02T12:31:09.888Z,16.79
2023-04-02T12:33:38.200Z,16.83
2023-04-02T12:36:16.685Z,17.21
2023-04-02T12:38:55.182Z,17.11
2023-04-02T12:41:32.336Z,16.50
2023-04-02T12:44:05.083Z,16.88
2023-04-02T12:46:34.384Z,17.39
2023-04-02T12:49:16.705Z,18.27
2023-04-02T12:51:43.504Z,17.35
2023-04-02T12:54:15.666Z,17.92
2023-04-02T12:56:42.378Z,17.53
2023-04-02T12:59:42.895Z,17.67
2023-04-02T13:02:33.305Z,17.59
2023-04-02T13:05:02.747Z,17.16
2023-04-02T13:07:32.904Z,17.49
2023-04-02T13:10:06.393Z,17.86
2023-04-02T13:12:36.621Z,16.91
2023-04-02T13:15:07.744Z,16.94
2023-04-02T13:17:47.916Z,17.99
2023-04-02T13:20:36.429Z,16.88
2023-04-02T13:23:29.073Z,16.87
2023-04-02T13:25:58.521Z,17.28
2023-04-02T13:28:25.443Z,16.75
2023-04-02T13:30:52.106Z,17.24
2023-04-02T13:33:20.485Z,18.25
2023-04-02T13:35:47.440Z,19.04
2023-04-02T13:38:14.186Z,19.39
2023-04-02T13:40:41.350Z,20.14
2023-04-02T13:43:15.203Z,20.22
2023-04-02T13:45:42.450Z,20.13
2023-04-02T13:48:14.738Z,20.19
2023-04-02T13:50:42.550Z,20.21
2023-04-02T13:53:21.246Z,19.86
2023-04-02T13:55:48.767Z,19.00
2023-04-02T13:58:15.647Z,17.89
2023-04-02T14:00:42.370Z,17.63
2023-04-02T14:03:13.948Z,17.54
2023-04-02T14:06:32.053Z,17.34
2023-04-02T14:09:08.767Z,16.35
2023-04-02T14:12:06.061Z,16.04
2023-04-02T14:14:41.267Z,15.67
2023-04-02T14:17:21.930Z,15.35
2023-04-02T14:20:00.130Z,14.99
2023-04-02T14:23:15.347Z,14.98
2023-04-02T14:25:59.995Z,15.21
2023-04-02T14:28:57.491Z,15.22
2023-04-02T14:34:20.096Z,15.31
2023-04-02T14:36:59.472Z,15.33
2023-04-02T14:39:26.321Z,15.39
2023-04-02T14:41:59.896Z,15.37
2023-04-02T14:44:32.989Z,15.37
2023-04-02T14:47:17.658Z,15.43
2023-04-02T14:49:49.642Z,15.37
2023-04-02T14:52:20.753Z,15.35
2023-04-02T14:55:02.456Z,15.41
2023-04-02T14:57:48.988Z,15.16
2023-04-02T15:00:28.046Z,15.11
2023-04-02T15:03:24.960Z,15.27
2023-04-02T15:06:04.929Z,15.43
2023-04-02T15:08:39.398Z,15.57
2023-04-02T15:11:16.985Z,15.47
2023-04-02T15:13:52.387Z,15.39
2023-04-02T15:16:26.802Z,15.21
2023-04-02T15:18:57.160Z,14.75
2023-04-02T15:21:57.642Z,14.62
2023-04-02T15:24:47.686Z,14.61
2023-04-02T15:27:37.572Z,14.54
2023-04-02T15:30:18.959Z,14.38
2023-04-02T15:32:46.943Z,14.42
2023-04-02T15:35:45.590Z,14.45
2023-04-02T15:38:19.079Z,14.49
2023-04-02T15:41:00.612Z,14.38
2023-04-02T15:43:29.833Z,14.31
2023-04-02T15:45:56.488Z,14.29
2023-04-02T15:48:56.677Z,14.32
2023-04-02T15:51:23.343Z,14.26
2023-04-02T15:54:14.146Z,14.18
2023-04-02T15:57:02.795Z,14.17
2023-04-02T15:59:54.740Z,14.19
2023-04-02T16:02:40.116Z,14.22
2023-04-02T16:05:38.646Z,14.10
2023-04-02T16:08:38.620Z,14.01
2023-04-02T16:11:11.464Z,13.95
2023-04-02T16:13:39.662Z,13.96
2023-04-02T16:16:12.286Z,13.96
2023-04-02T16:19:15.915Z,13.93
2023-04-02T16:21:56.775Z,13.86
2023-04-02T16:24:23.554Z,13.80
2023-04-02T16:27:00.046Z,13.38
2023-04-02T16:29:55.034Z,13.15
2023-04-02T16:33:03.703Z,12.55
2023-04-02T16:36:01.557Z,12.24
2023-04-02T16:39:07.149Z,11.98
2023-04-02T16:41:39.333Z,11.76
2023-04-02T16:44:25.609Z,11.75
2023-04-02T16:47:31.651Z,11.70
2023-04-02T16:50:16.868Z,11.74
2023-04-02T16:52:56.460Z,11.71
2023-04-02T16:55:51.057Z,11.71
2023-04-02T16:58:39.404Z,11.65
2023-04-02T17:01:11.927Z,11.63
2023-04-02T17:04:09.037Z,11.58
2023-04-02T17:06:46.477Z,11.60
2023-04-02T17:09:50.645Z,11.54
2023-04-02T17:12:28.864Z,11.46
2023-04-02T17:15:20.939Z,11.42
2023-04-02T17:17:58.494Z,11.28
2023-04-02T17:20:30.439Z,11.26
2023-04-02T17:22:59.143Z,11.13
2023-04-02T17:25:28.344Z,11.07
2023-04-02T17:27:56.456Z,10.99
2023-04-02T17:30:43.633Z,10.92
2023-04-02T17:33:15.935Z,10.83
2023-04-02T17:35:56.525Z,10.69
2023-04-02T17:38:43.174Z,10.67
2023-04-02T17:41:37.230Z,10.58
2023-04-02T17:44:20.396Z,10.48
2023-04-02T17:47:23.190Z,10.37
2023-04-02T17:49:55.708Z,10.29
2023-04-02T17:52:32.729Z,10.20
2023-04-02T17:55:14.387Z,10.13
2023-04-02T17:58:05.217Z,10.01
2023-04-02T18:00:44.797Z,9.95
2023-04-02T18:03:25.366Z,9.86
2023-04-02T18:06:15.862Z,9.80
2023-04-02T18:08:55.511Z,9.76
2023-04-02T18:11:42.066Z,9.73
2023-04-02T18:14:46.353Z,9.64
2023-04-02T18:17:19.523Z,9.51
2023-04-02T18:19:49.213Z,9.46
2023-04-02T18:22:29.384Z,9.41
2023-04-02T18:25:05.663Z,9.33
2023-04-02T18:27:53.940Z,9.26
2023-04-02T18:30:36.288Z,9.21
2023-04-02T18:33:33.531Z,9.17
2023-04-02T18:36:21.258Z,9.09
2023-04-02T18:39:06.586Z,9.06
2023-04-02T18:42:05.779Z,9.02
2023-04-02T18:44:49.330Z,8.94
2023-04-02T18:47:41.006Z,8.92
2023-04-02T18:50:29.617Z,8.88
2023-04-02T18:52:56.490Z,8.75
2023-04-02T18:55:28.064Z,8.75
2023-04-02T18:58:02.435Z,8.67
2023-04-02T19:00:36.553Z,8.57
2023-04-02T19:03:25.152Z,8.55
2023-04-02T19:05:56.627Z,8.46
2023-04-02T19:08:31.494Z,8.39
2023-04-02T19:11:01.847Z,8.39
2023-04-02T19:13:28.673Z,8.35
2023-04-02T19:16:18.057Z,8.31
2023-04-02T19:18:59.616Z,8.29
2023-04-02T19:21:42.388Z,8.30
2023-04-02T19:24:12.375Z,8.25
2023-04-02T19:27:07.767Z,8.23
2023-04-02T19:29:49.380Z,8.18
2023-04-02T19:32:16.067Z,8.17
2023-04-02T19:34:52.884Z,8.13
2023-04-02T19:37:39.615Z,8.10
2023-04-02T19:40:25.449Z,8.09
2023-04-02T19:42:54.234Z,8.08
2023-04-02T19:45:38.977Z,8.06
2023-04-02T19:48:21.717Z,7.99
2023-04-02T19:50:49.435Z,7.97
2023-04-02T19:53:17.095Z,7.98
2023-04-02T19:55:44.766Z,7.91
2023-04-02T19:58:33.014Z,7.84
2023-04-02T20:01:02.238Z,7.74
2023-04-02T20:03:30.380Z,7.70
2023-04-02T20:05:59.565Z,7.69
2023-04-02T20:08:27.439Z,7.62
2023-04-02T20:10:54.905Z,7.56
2023-04-02T20:13:21.617Z,7.53
2023-04-02T20:15:49.164Z,7.47
2023-04-02T20:18:15.935Z,7.39
2023-04-02T20:20:45.954Z,7.39
2023-04-02T20:23:12.659Z,7.32
2023-04-02T20:25:45.498Z,7.32
2023-04-02T20:28:12.503Z,7.24
2023-04-02T20:30:39.470Z,7.27
2023-04-02T20:33:06.370Z,7.19
2023-04-02T20:35:34.619Z,7.16
2023-04-02T20:38:06.352Z,7.10
2023-04-02T20:40:33.729Z,7.06
2023-04-02T20:43:00.401Z,7.02
2023-04-02T20:45:29.318Z,6.99
2023-04-02T20:47:56.695Z,6.97
2023-04-02T20:50:23.541Z,6.88
2023-04-02T20:52:50.966Z,6.94
2023-04-02T20:55:17.968Z,6.90
2023-04-02T20:57:44.685Z,6.87
2023-04-02T21:00:12.233Z,6.78
2023-04-02T21:02:39.005Z,6.83
2023-04-02T21:05:05.839Z,6.85
2023-04-02T21:07:32.594Z,6.84
2023-04-02T21:09:59.294Z,6.85
2023-04-02T21:12:26.017Z,6.81
2023-04-02T21:14:57.355Z,6.81
2023-04-02T21:17:24.426Z,6.83
2023-04-02T21:19:51.204Z,6.83
2023-04-02T21:22:17.945Z,6.85
2023-04-02T21:24:44.660Z,6.84
2023-04-02T21:27:11.399Z,6.83
2023-04-02T21:29:38.075Z,6.78
2023-04-02T21:32:14.472Z,6.75
2023-04-02T21:34:47.969Z,6.71
2023-04-02T21:37:14.684Z,6.72
2023-04-02T21:39:41.516Z,6.70
2023-04-02T21:42:08.279Z,6.68
2023-04-02T21:44:35.005Z,6.69
2023-04-02T21:47:01.769Z,6.64
2023-04-02T21:49:29.742Z,6.63
2023-04-02T21:51:56.522Z,6.56
2023-04-02T21:54:23.458Z,6.49
2023-04-02T21:56:50.428Z,6.40
2023-04-02T21:59:17.662Z,6.35
2023-04-02T22:01:53.616Z,6.17
2023-04-02T22:04:25.563Z,6.10
2023-04-02T22:06:52.894Z,6.02
2023-04-02T22:09:22.629Z,5.99
2023-04-02T22:11:52.738Z,5.70
2023-04-02T22:14:19.898Z,5.71
2023-04-02T22:16:46.697Z,5.65
2023-04-02T22:19:16.000Z,5.64
2023-04-02T22:21:43.342Z,5.63
2023-04-02T22:24:14.159Z,5.55
2023-04-02T22:26:41.243Z,5.50
2023-04-02T22:29:08.620Z,5.46
2023-04-02T22:31:35.629Z,5.39
2023-04-02T22:34:04.210Z,5.33
2023-04-02T22:36:31.186Z,5.25
2023-04-02T22:38:59.088Z,5.13
2023-04-02T22:41:28.370Z,5.04
2023-04-02T22:43:56.478Z,4.89
2023-04-02T22:46:24.510Z,4.87
2023-04-02T22:48:51.559Z,4.77
2023-04-02T22:51:20.848Z,4.82
2023-04-02T22:53:48.303Z,4.80
2023-04-02T22:56:18.357Z,4.79
2023-04-02T22:58:45.577Z,4.65
2023-04-02T23:01:21.473Z,4.68
2023-04-02T23:03:48.851Z,4.50
2023-04-02T23:06:16.865Z,4.58
2023-04-02T23:08:44.737Z,4.55
2023-04-02T23:11:21.962Z,4.51
2023-04-02T23:13:50.438Z,4.44
2023-04-02T23:16:18.417Z,4.36
2023-04-02T23:18:49.297Z,4.32
2023-04-02T23:21:18.227Z,4.31
2023-04-02T23:23:45.675Z,4.25
2023-04-02T23:26:15.571Z,4.24
2023-04-02T23:28:42.602Z,4.17
2023-04-02T23:31:14.204Z,4.12
2023-04-02T23:33:41.089Z,4.15
2023-04-02T23:36:09.786Z,4.12
2023-04-02T23:38:36.652Z,4.04
2023-04-02T23:41:03.581Z,4.03
2023-04-02T23:43:30.462Z,3.98
2023-04-02T23:45:57.235Z,3.91
2023-04-02T23:48:23.989Z,3.84
2023-04-02T23:50:50.841Z,3.77
2023-04-02T23:53:18.757Z,3.69
2023-04-02T23:55:45.948Z,3.58
2023-04-02T23:58:12.745Z,3.55
